sensor_id;sensor_type;location;lat;lon;timestamp;temperature;humidity
34061;DHT22;20336;-33.424;-70.638;2023-03-01T00:02:10;26.20;90.20
34061;DHT22;20336;-33.424;-70.638;2023-03-01T00:04:37;26.10;90.70
34061;DHT22;20336;-33.424;-70.638;2023-03-01T00:07:03;26.00;90.80
34061;DHT22;20336;-33.424;-70.638;2023-03-01T00:09:30;25.90;91.10
34061;DHT22;20336;-33.424;-70.638;2023-03-01T00:11:57;25.90;92.00
34061;DHT22;20336;-33.424;-70.638;2023-03-01T00:14:24;25.70;92.00
34061;DHT22;20336;-33.424;-70.638;2023-03-01T00:16:51;25.60;92.80
34061;DHT22;20336;-33.424;-70.638;2023-03-01T00:19:19;25.50;93.30
34061;DHT22;20336;-33.424;-70.638;2023-03-01T00:21:46;25.40;93.70
34061;DHT22;20336;-33.424;-70.638;2023-03-01T00:24:13;25.30;94.40
34061;DHT22;20336;-33.424;-70.638;2023-03-01T00:26:40;25.20;94.70
34061;DHT22;20336;-33.424;-70.638;2023-03-01T00:29:07;25.10;95.00
34061;DHT22;20336;-33.424;-70.638;2023-03-01T00:31:34;25.10;95.20
34061;DHT22;20336;-33.424;-70.638;2023-03-01T00:34:03;25.10;95.50
34061;DHT22;20336;-33.424;-70.638;2023-03-01T00:36:33;25.10;95.80
34061;DHT22;20336;-33.424;-70.638;2023-03-01T00:39:01;24.90;95.80
34061;DHT22;20336;-33.424;-70.638;2023-03-01T00:41:30;24.80;96.10
34061;DHT22;20336;-33.424;-70.638;2023-03-01T00:43:57;24.70;96.50
34061;DHT22;20336;-33.424;-70.638;2023-03-01T00:46:26;24.70;96.60
34061;DHT22;20336;-33.424;-70.638;2023-03-01T00:48:53;24.60;97.20
34061;DHT22;20336;-33.424;-70.638;2023-03-01T00:51:26;24.50;97.60
34061;DHT22;20336;-33.424;-70.638;2023-03-01T00:53:55;24.50;97.30
34061;DHT22;20336;-33.424;-70.638;2023-03-01T00:56:22;24.40;97.60
34061;DHT22;20336;-33.424;-70.638;2023-03-01T00:58:49;24.40;98.10
34061;DHT22;20336;-33.424;-70.638;2023-03-01T01:01:19;24.30;97.90
34061;DHT22;20336;-33.424;-70.638;2023-03-01T01:03:51;24.30;98.30
34061;DHT22;20336;-33.424;-70.638;2023-03-01T01:06:21;24.20;98.90
34061;DHT22;20336;-33.424;-70.638;2023-03-01T01:08:50;24.00;98.80
34061;DHT22;20336;-33.424;-70.638;2023-03-01T01:11:17;24.00;99.20
34061;DHT22;20336;-33.424;-70.638;2023-03-01T01:13:46;23.90;99.40
34061;DHT22;20336;-33.424;-70.638;2023-03-01T01:16:14;23.90;99.70
34061;DHT22;20336;-33.424;-70.638;2023-03-01T01:18:41;23.90;99.90
34061;DHT22;20336;-33.424;-70.638;2023-03-01T01:21:11;23.90;99.90
34061;DHT22;20336;-33.424;-70.638;2023-03-01T01:23:40;23.70;99.90
34061;DHT22;20336;-33.424;-70.638;2023-03-01T01:26:16;23.70;99.90
34061;DHT22;20336;-33.424;-70.638;2023-03-01T01:28:46;23.70;99.90
34061;DHT22;20336;-33.424;-70.638;2023-03-01T01:31:14;23.70;99.90
34061;DHT22;20336;-33.424;-70.638;2023-03-01T01:33:41;23.70;99.90
34061;DHT22;20336;-33.424;-70.638;2023-03-01T01:36:09;23.60;99.90
34061;DHT22;20336;-33.424;-70.638;2023-03-01T01:38:37;23.50;99.90
34061;DHT22;20336;-33.424;-70.638;2023-03-01T01:41:05;23.50;99.90
34061;DHT22;20336;-33.424;-70.638;2023-03-01T01:43:43;23.40;99.90
34061;DHT22;20336;-33.424;-70.638;2023-03-01T01:48:46;23.40;99.90
34061;DHT22;20336;-33.424;-70.638;2023-03-01T01:51:20;23.40;99.90
34061;DHT22;20336;-33.424;-70.638;2023-03-01T01:53:53;23.30;99.90
34061;DHT22;20336;-33.424;-70.638;2023-03-01T01:56:24;23.20;99.90
34061;DHT22;20336;-33.424;-70.638;2023-03-01T01:58:51;23.20;99.90
34061;DHT22;20336;-33.424;-70.638;2023-03-01T02:01:20;23.20;99.90
34061;DHT22;20336;-33.424;-70.638;2023-03-01T02:03:47;23.00;99.90
34061;DHT22;20336;-33.424;-70.638;2023-03-01T02:06:37;23.00;99.90
34061;DHT22;20336;-33.424;-70.638;2023-03-01T02:09:08;23.00;99.90
34061;DHT22;20336;-33.424;-70.638;2023-03-01T02:11:37;23.00;99.90
34061;DHT22;20336;-33.424;-70.638;2023-03-01T02:14:04;23.00;99.90
34061;DHT22;20336;-33.424;-70.638;2023-03-01T02:16:31;23.00;99.90
34061;DHT22;20336;-33.424;-70.638;2023-03-01T02:18:59;22.90;99.90
34061;DHT22;20336;-33.424;-70.638;2023-03-01T02:21:47;23.00;99.90
34061;DHT22;20336;-33.424;-70.638;2023-03-01T02:27:13;22.80;99.90
34061;DHT22;20336;-33.424;-70.638;2023-03-01T02:29:40;22.90;99.90
34061;DHT22;20336;-33.424;-70.638;2023-03-01T02:32:12;22.80;99.90
34061;DHT22;20336;-33.424;-70.638;2023-03-01T02:34:40;22.70;99.90
34061;DHT22;20336;-33.424;-70.638;2023-03-01T02:37:12;22.70;99.90
34061;DHT22;20336;-33.424;-70.638;2023-03-01T02:39:47;22.70;99.90
34061;DHT22;20336;-33.424;-70.638;2023-03-01T02:42:22;22.60;99.90
34061;DHT22;20336;-33.424;-70.638;2023-03-01T02:44:50;22.60;99.90
34061;DHT22;20336;-33.424;-70.638;2023-03-01T02:47:17;22.50;99.90
34061;DHT22;20336;-33.424;-70.638;2023-03-01T02:49:44;22.50;99.90
34061;DHT22;20336;-33.424;-70.638;2023-03-01T02:52:28;22.40;99.90
34061;DHT22;20336;-33.424;-70.638;2023-03-01T02:57:35;22.30;99.90
34061;DHT22;20336;-33.424;-70.638;2023-03-01T03:00:13;22.30;99.90
34061;DHT22;20336;-33.424;-70.638;2023-03-01T03:02:49;22.20;99.90
34061;DHT22;20336;-33.424;-70.638;2023-03-01T03:05:19;22.20;99.90
34061;DHT22;20336;-33.424;-70.638;2023-03-01T03:07:47;22.10;99.90
34061;DHT22;20336;-33.424;-70.638;2023-03-01T03:10:23;22.10;99.90
34061;DHT22;20336;-33.424;-70.638;2023-03-01T03:12:58;22.10;99.90
34061;DHT22;20336;-33.424;-70.638;2023-03-01T03:15:26;22.00;99.90
34061;DHT22;20336;-33.424;-70.638;2023-03-01T03:17:55;21.90;99.90
34061;DHT22;20336;-33.424;-70.638;2023-03-01T03:20:24;21.90;99.90
34061;DHT22;20336;-33.424;-70.638;2023-03-01T03:22:53;21.90;99.90
34061;DHT22;20336;-33.424;-70.638;2023-03-01T03:25:21;21.90;99.90
34061;DHT22;20336;-33.424;-70.638;2023-03-01T03:27:50;21.90;99.90
34061;DHT22;20336;-33.424;-70.638;2023-03-01T03:30:25;21.90;99.90
34061;DHT22;20336;-33.424;-70.638;2023-03-01T03:32:52;21.80;99.90
34061;DHT22;20336;-33.424;-70.638;2023-03-01T03:35:31;21.90;99.90
34061;DHT22;20336;-33.424;-70.638;2023-03-01T03:38:00;21.80;99.90
34061;DHT22;20336;-33.424;-70.638;2023-03-01T03:40:36;21.80;99.90
34061;DHT22;20336;-33.424;-70.638;2023-03-01T03:43:06;21.70;99.90
34061;DHT22;20336;-33.424;-70.638;2023-03-01T03:45:34;21.60;99.90
34061;DHT22;20336;-33.424;-70.638;2023-03-01T14:59:53;30.00;95.90
34061;DHT22;20336;-33.424;-70.638;2023-03-01T15:02:23;30.00;95.90
34061;DHT22;20336;-33.424;-70.638;2023-03-01T15:04:56;29.70;95.90
34061;DHT22;20336;-33.424;-70.638;2023-03-01T15:07:32;29.80;95.20
34061;DHT22;20336;-33.424;-70.638;2023-03-01T15:10:02;29.80;94.90
34061;DHT22;20336;-33.424;-70.638;2023-03-01T15:14:57;30.40;94.10
34061;DHT22;20336;-33.424;-70.638;2023-03-01T15:17:32;30.80;93.60
34061;DHT22;20336;-33.424;-70.638;2023-03-01T15:20:02;31.10;92.90
34061;DHT22;20336;-33.424;-70.638;2023-03-01T15:22:30;30.70;92.20
34061;DHT22;20336;-33.424;-70.638;2023-03-01T15:24:57;30.50;92.30
34061;DHT22;20336;-33.424;-70.638;2023-03-01T15:27:25;30.80;92.70
34061;DHT22;20336;-33.424;-70.638;2023-03-01T15:29:59;31.40;91.10
34061;DHT22;20336;-33.424;-70.638;2023-03-01T15:32:29;31.70;91.30
34061;DHT22;20336;-33.424;-70.638;2023-03-01T15:34:58;31.50;91.50
34061;DHT22;20336;-33.424;-70.638;2023-03-01T15:37:45;31.60;90.60
34061;DHT22;20336;-33.424;-70.638;2023-03-01T15:40:48;31.80;90.50
34061;DHT22;20336;-33.424;-70.638;2023-03-01T15:43:40;31.60;89.90
34061;DHT22;20336;-33.424;-70.638;2023-03-01T15:46:16;31.60;89.20
34061;DHT22;20336;-33.424;-70.638;2023-03-01T15:48:53;31.90;88.00
34061;DHT22;20336;-33.424;-70.638;2023-03-01T15:51:34;32.30;87.20
34061;DHT22;20336;-33.424;-70.638;2023-03-01T15:54:17;32.10;88.00
34061;DHT22;20336;-33.424;-70.638;2023-03-01T15:56:45;32.50;89.10
34061;DHT22;20336;-33.424;-70.638;2023-03-01T15:59:12;32.70;85.80
34061;DHT22;20336;-33.424;-70.638;2023-03-01T16:01:41;32.70;86.30
34061;DHT22;20336;-33.424;-70.638;2023-03-01T16:04:11;32.50;86.80
34061;DHT22;20336;-33.424;-70.638;2023-03-01T16:06:53;32.40;84.80
34061;DHT22;20336;-33.424;-70.638;2023-03-01T16:09:25;32.90;84.70
34061;DHT22;20336;-33.424;-70.638;2023-03-01T16:11:53;32.90;83.50
34061;DHT22;20336;-33.424;-70.638;2023-03-01T16:14:20;33.30;83.60
34061;DHT22;20336;-33.424;-70.638;2023-03-01T16:16:48;33.20;82.20
34061;DHT22;20336;-33.424;-70.638;2023-03-01T16:19:15;33.90;82.50
34061;DHT22;20336;-33.424;-70.638;2023-03-01T16:21:43;34.60;80.50
34061;DHT22;20336;-33.424;-70.638;2023-03-01T16:24:13;34.10;79.30
34061;DHT22;20336;-33.424;-70.638;2023-03-01T16:26:40;33.50;79.70
34061;DHT22;20336;-33.424;-70.638;2023-03-01T16:29:08;33.90;79.60
34061;DHT22;20336;-33.424;-70.638;2023-03-01T16:31:35;34.40;78.50
34061;DHT22;20336;-33.424;-70.638;2023-03-01T16:34:02;35.30;78.00
34061;DHT22;20336;-33.424;-70.638;2023-03-01T16:36:30;36.20;76.70
34061;DHT22;20336;-33.424;-70.638;2023-03-01T16:39:00;35.40;76.20
34061;DHT22;20336;-33.424;-70.638;2023-03-01T16:41:29;34.80;76.10
34061;DHT22;20336;-33.424;-70.638;2023-03-01T16:43:55;34.10;78.30
34061;DHT22;20336;-33.424;-70.638;2023-03-01T16:46:25;34.10;78.40
34061;DHT22;20336;-33.424;-70.638;2023-03-01T16:48:52;34.80;78.30
34061;DHT22;20336;-33.424;-70.638;2023-03-01T16:51:20;35.30;76.60
34061;DHT22;20336;-33.424;-70.638;2023-03-01T16:53:49;35.80;75.50
34061;DHT22;20336;-33.424;-70.638;2023-03-01T16:56:17;35.20;75.50
34061;DHT22;20336;-33.424;-70.638;2023-03-01T16:58:44;34.70;76.90
34061;DHT22;20336;-33.424;-70.638;2023-03-01T17:01:16;35.80;76.20
34061;DHT22;20336;-33.424;-70.638;2023-03-01T17:03:44;35.70;74.40
34061;DHT22;20336;-33.424;-70.638;2023-03-01T17:06:15;36.40;75.10
34061;DHT22;20336;-33.424;-70.638;2023-03-01T17:08:42;35.90;75.00
34061;DHT22;20336;-33.424;-70.638;2023-03-01T17:11:11;36.00;73.80
34061;DHT22;20336;-33.424;-70.638;2023-03-01T17:13:39;37.00;73.60
34061;DHT22;20336;-33.424;-70.638;2023-03-01T17:16:08;37.40;72.90
34061;DHT22;20336;-33.424;-70.638;2023-03-01T17:18:35;37.90;70.90
34061;DHT22;20336;-33.424;-70.638;2023-03-01T17:21:05;37.40;71.30
34061;DHT22;20336;-33.424;-70.638;2023-03-01T22:48:52;32.30;69.60
34061;DHT22;20336;-33.424;-70.638;2023-03-01T22:51:21;31.50;71.10
34061;DHT22;20336;-33.424;-70.638;2023-03-01T22:53:48;31.50;72.00
34061;DHT22;20336;-33.424;-70.638;2023-03-01T22:56:18;31.10;73.00
34061;DHT22;20336;-33.424;-70.638;2023-03-01T22:58:46;30.80;73.70
34061;DHT22;20336;-33.424;-70.638;2023-03-01T23:01:14;30.60;74.40
34061;DHT22;20336;-33.424;-70.638;2023-03-01T23:03:42;30.30;75.10
34061;DHT22;20336;-33.424;-70.638;2023-03-01T23:06:10;29.80;76.20
34061;DHT22;20336;-33.424;-70.638;2023-03-01T23:08:38;29.70;77.20
34061;DHT22;20336;-33.424;-70.638;2023-03-01T23:11:13;29.40;77.80
34061;DHT22;20336;-33.424;-70.638;2023-03-01T23:13:41;29.30;78.40
34061;DHT22;20336;-33.424;-70.638;2023-03-01T23:16:09;29.00;80.20
34061;DHT22;20336;-33.424;-70.638;2023-03-01T23:18:37;28.70;80.10
34061;DHT22;20336;-33.424;-70.638;2023-03-01T23:21:14;28.60;80.70
34061;DHT22;20336;-33.424;-70.638;2023-03-01T23:23:42;28.40;81.60
34061;DHT22;20336;-33.424;-70.638;2023-03-01T23:26:09;28.20;82.40
34061;DHT22;20336;-33.424;-70.638;2023-03-01T23:28:36;28.00;83.80
34061;DHT22;20336;-33.424;-70.638;2023-03-01T23:31:07;27.80;83.30
34061;DHT22;20336;-33.424;-70.638;2023-03-01T23:33:34;27.70;83.50
34061;DHT22;20336;-33.424;-70.638;2023-03-01T23:36:05;27.50;84.50
34061;DHT22;20336;-33.424;-70.638;2023-03-01T23:38:33;27.40;84.60
34061;DHT22;20336;-33.424;-70.638;2023-03-01T23:40:59;27.20;86.30
34061;DHT22;20336;-33.424;-70.638;2023-03-01T23:43:26;27.00;87.50
34061;DHT22;20336;-33.424;-70.638;2023-03-01T23:45:53;26.80;88.80
34061;DHT22;20336;-33.424;-70.638;2023-03-01T23:48:20;26.70;90.00
34061;DHT22;20336;-33.424;-70.638;2023-03-01T23:50:47;26.60;90.20
34061;DHT22;20336;-33.424;-70.638;2023-03-01T23:53:19;26.60;90.30
34061;DHT22;20336;-33.424;-70.638;2023-03-01T23:55:51;26.70;90.30
34061;DHT22;20336;-33.424;-70.638;2023-03-01T23:58:18;26.60;91.00
